createdAt,value
2022-09-28T00:07:17.961Z,99127.22
2022-09-28T00:17:22.834Z,99123.34
2022-09-28T00:27:25.864Z,99114.59
2022-09-28T00:37:28.758Z,99109.75
2022-09-28T00:47:50.998Z,99129.38
2022-09-28T00:57:58.494Z,99132.28
2022-09-28T01:08:02.367Z,99122.50
2022-09-28T01:18:17.764Z,99115.66
2022-09-28T01:28:29.233Z,99121.81
2022-09-28T01:38:35.874Z,99146.03
2022-09-28T01:48:46.349Z,99156.25
2022-09-28T01:59:24.992Z,99154.03
2022-09-28T02:09:42.050Z,99167.63
2022-09-28T02:19:45.209Z,99179.81
2022-09-28T02:29:49.594Z,99192.84
2022-09-28T02:39:52.706Z,99216.09
2022-09-28T02:50:06.159Z,99224.91
2022-09-28T03:00:15.162Z,99252.09
2022-09-28T03:10:51.711Z,99271.13
2022-09-28T03:20:55.715Z,99274.09
2022-09-28T03:30:59.266Z,99286.38
2022-09-28T03:41:02.356Z,99276.63
2022-09-28T03:51:09.358Z,99278.16
2022-09-28T04:01:18.621Z,99284.19
2022-09-28T04:11:21.977Z,99303.50
2022-09-28T04:21:25.270Z,99308.63
2022-09-28T04:31:30.625Z,99314.31
2022-09-28T04:41:34.430Z,99298.28
2022-09-28T04:51:37.361Z,99310.41
2022-09-28T05:01:40.451Z,99318.47
2022-09-28T05:11:46.353Z,99324.69
2022-09-28T05:21:58.070Z,99354.63
2022-09-28T05:32:01.844Z,99363.97
2022-09-28T05:42:06.027Z,99353.78
2022-09-28T05:52:09.066Z,99360.56
2022-09-28T06:02:12.956Z,99365.78
2022-09-28T06:12:17.430Z,99387.78
2022-09-28T06:22:20.757Z,99386.91
2022-09-28T06:32:24.699Z,99389.41
2022-09-28T06:42:27.939Z,99387.38
2022-09-28T06:52:34.352Z,99407.78
2022-09-28T07:02:38.688Z,99404.31
2022-09-28T07:12:42.537Z,99406.78
2022-09-28T07:22:48.419Z,99421.78
2022-09-28T07:32:52.462Z,99434.66
2022-09-28T07:42:56.343Z,99426.94
2022-09-28T07:53:00.639Z,99410.03
2022-09-28T08:03:04.485Z,99417.69
2022-09-28T08:13:08.795Z,99436.56
2022-09-28T08:23:12.488Z,99442.78
2022-09-28T08:33:23.497Z,99448.47
2022-09-28T08:43:57.054Z,99448.22
2022-09-28T08:54:06.847Z,99456.53
2022-09-28T09:04:14.994Z,99452.84
2022-09-28T09:14:25.168Z,99451.03
2022-09-28T09:24:58.966Z,99454.47
2022-09-28T09:35:22.250Z,99441.47
2022-09-28T09:45:45.398Z,99447.53
2022-09-28T09:55:57.315Z,99444.13
2022-09-28T10:06:06.416Z,99443.81
2022-09-28T10:16:09.518Z,99459.59
2022-09-28T10:26:25.058Z,99454.75
2022-09-28T10:36:28.914Z,99457.97
2022-09-28T10:46:34.773Z,99466.41
2022-09-28T10:56:44.770Z,99468.09
2022-09-28T11:06:51.781Z,99450.22
2022-09-28T11:17:29.164Z,99456.94
2022-09-28T11:27:35.562Z,99450.44
2022-09-28T11:37:44.499Z,99456.31
2022-09-28T11:47:47.987Z,99460.63
2022-09-28T11:58:04.277Z,99450.22
2022-09-28T12:08:46.623Z,99445.37
2022-09-28T12:19:02.433Z,99450.50
2022-09-28T12:29:13.848Z,99451.38
2022-09-28T12:39:40.821Z,99433.62
2022-09-28T12:50:36.919Z,99448.09
2022-09-28T13:00:23.374Z,99439.81
2022-09-28T13:10:50.364Z,99453.63
2022-09-28T13:21:10.390Z,99451.13
2022-09-28T13:31:20.351Z,99433.22
2022-09-28T13:41:34.120Z,99435.16
2022-09-28T13:52:05.309Z,99425.94
2022-09-28T14:02:33.310Z,99422.69
2022-09-28T14:12:36.166Z,99420.44
2022-09-28T14:23:26.788Z,99413.09
2022-09-28T14:33:32.462Z,99398.59
2022-09-28T14:43:44.349Z,99390.25
2022-09-28T14:53:50.767Z,99377.13
2022-09-28T15:03:56.680Z,99377.72
2022-09-28T15:14:08.375Z,99380.00
2022-09-28T15:24:34.731Z,99398.22
2022-09-28T15:34:52.839Z,99401.16
2022-09-28T15:45:01.906Z,99406.34
2022-09-28T15:55:18.763Z,99421.37
2022-09-28T16:05:46.776Z,99412.09
2022-09-28T16:15:59.772Z,99412.53
2022-09-28T16:26:12.105Z,99415.06
2022-09-28T16:36:19.813Z,99408.69
2022-09-28T16:46:29.547Z,99422.13
2022-09-28T16:56:34.244Z,99403.38
2022-09-28T17:06:37.611Z,99392.63
2022-09-28T17:17:06.808Z,99390.50
2022-09-28T17:27:06.962Z,99393.41
2022-09-28T17:37:14.574Z,99392.06
2022-09-28T17:47:17.955Z,99392.41
2022-09-28T17:57:21.343Z,99406.87
